Time;durP1;ratioP1;P1;durP2;ratioP2;P2;SDS_P1;SDS_P2;PMS_P1;PMS_P2;Temp;Humidity;BMP_temperature;BMP_pressure;BME280_temperature;BME280_humidity;BME280_pressure;Samples;Min_cycle;Max_cycle;Signal;HPM_P1;HPM_P2
2020/12/29 00:00:56;;;;;;;3.27;2.47;;;3.60;99.90;;;;;;5034401;28;20554;-72
2020/12/29 00:03:23;;;;;;;2.50;2.23;;;3.60;99.90;;;;;;5035415;28;20520;-72
2020/12/29 00:05:49;;;;;;;3.10;2.50;;;3.50;99.90;;;;;;5053561;28;20812;-72
2020/12/29 00:08:15;;;;;;;3.07;2.77;;;3.50;99.90;;;;;;5053298;28;20435;-72
2020/12/29 00:10:41;;;;;;;2.57;2.37;;;3.50;99.90;;;;;;5052586;28;20422;-72
2020/12/29 00:13:08;;;;;;;2.63;2.43;;;3.50;99.90;;;;;;5053701;28;20463;-72
2020/12/29 00:15:37;;;;;;;2.57;2.37;;;3.50;99.90;;;;;;5053101;28;20469;-73
2020/12/29 00:18:03;;;;;;;2.90;2.70;;;3.50;99.90;;;;;;5047761;28;20428;-72
2020/12/29 00:20:28;;;;;;;4.63;3.70;;;3.50;99.90;;;;;;5034019;28;20512;-73
2020/12/29 00:22:54;;;;;;;3.50;2.50;;;3.50;99.90;;;;;;5034060;28;20690;-73
2020/12/29 00:25:20;;;;;;;2.93;2.63;;;3.40;99.90;;;;;;5041632;28;20628;-73
2020/12/29 00:27:46;;;;;;;3.47;2.80;;;3.40;99.90;;;;;;5045634;28;20227;-72
2020/12/29 00:30:12;;;;;;;3.70;3.37;;;3.30;99.90;;;;;;5053293;28;20414;-73
2020/12/29 00:32:38;;;;;;;3.70;2.80;;;3.10;99.90;;;;;;5043392;28;20539;-73
2020/12/29 00:35:04;;;;;;;4.37;3.20;;;3.10;99.90;;;;;;5033397;28;20555;-73
2020/12/29 00:37:30;;;;;;;3.70;3.07;;;3.10;99.90;;;;;;5033695;28;20192;-73
2020/12/29 00:39:55;;;;;;;3.00;2.70;;;3.00;99.90;;;;;;5045714;28;20421;-73
2020/12/29 00:42:21;;;;;;;4.33;3.10;;;2.90;99.90;;;;;;5053128;28;20178;-73
2020/12/29 00:44:46;;;;;;;2.93;2.73;;;2.90;99.90;;;;;;5052743;28;20527;-73
2020/12/29 00:47:12;;;;;;;3.00;2.80;;;2.90;99.90;;;;;;5038706;28;20225;-73
2020/12/29 00:49:38;;;;;;;7.90;3.90;;;2.90;99.90;;;;;;5033849;28;20188;-73
2020/12/29 00:52:04;;;;;;;3.63;3.33;;;2.80;99.90;;;;;;5033587;28;20327;-73
2020/12/29 00:54:30;;;;;;;3.67;3.13;;;2.80;99.90;;;;;;5048792;28;20569;-73
2020/12/29 00:56:55;;;;;;;5.23;3.63;;;2.70;99.90;;;;;;5052253;28;20460;-73
2020/12/29 00:59:21;;;;;;;3.63;3.03;;;2.70;99.90;;;;;;5046176;28;20270;-73
2020/12/29 01:01:54;;;;;;;4.20;3.80;;;2.70;99.90;;;;;;5050879;28;20196;-73
2020/12/29 01:04:20;;;;;;;3.93;3.33;;;2.70;99.90;;;;;;5052949;28;20206;-73
2020/12/29 01:06:46;;;;;;;3.90;3.50;;;2.70;99.90;;;;;;5050809;28;20562;-72
2020/12/29 01:09:11;;;;;;;3.30;3.00;;;2.70;99.90;;;;;;5033393;28;20678;-73
2020/12/29 01:11:37;;;;;;;3.73;3.37;;;2.60;99.90;;;;;;5033779;28;20187;-73
2020/12/29 01:14:02;;;;;;;4.33;3.60;;;2.60;99.90;;;;;;5036544;28;20214;-73
2020/12/29 01:16:28;;;;;;;3.50;3.20;;;2.50;99.90;;;;;;5053451;28;20202;-73
2020/12/29 01:18:53;;;;;;;3.57;3.20;;;2.50;99.90;;;;;;5055368;28;20186;-73
2020/12/29 01:21:19;;;;;;;4.57;4.13;;;2.60;99.90;;;;;;5047897;28;20187;-72
2020/12/29 01:23:44;;;;;;;3.37;3.07;;;2.60;99.90;;;;;;5034451;28;20190;-73
2020/12/29 01:26:10;;;;;;;3.60;3.27;;;2.60;99.90;;;;;;5036736;28;20273;-73
2020/12/29 01:28:37;;;;;;;4.63;3.20;;;2.70;99.90;;;;;;5043979;28;20186;-73
2020/12/29 01:31:03;;;;;;;4.50;3.50;;;2.70;99.90;;;;;;5049402;28;20258;-73
2020/12/29 01:33:28;;;;;;;4.10;3.17;;;2.70;99.90;;;;;;5034029;28;20471;-73
2020/12/29 01:35:54;;;;;;;4.40;3.30;;;2.70;99.90;;;;;;5040428;28;20234;-72
2020/12/29 01:38:20;;;;;;;3.10;2.80;;;2.70;99.90;;;;;;5033261;28;20171;-72
2020/12/29 01:40:46;;;;;;;3.10;2.80;;;2.70;99.90;;;;;;5033223;28;20171;-73
2020/12/29 01:43:12;;;;;;;3.77;3.37;;;2.70;99.90;;;;;;5044392;28;20268;-73
2020/12/29 01:45:38;;;;;;;3.00;2.70;;;2.70;99.90;;;;;;5044993;28;20495;-73
2020/12/29 01:48:03;;;;;;;2.90;2.70;;;2.70;99.90;;;;;;5032126;28;20186;-73
2020/12/29 01:50:29;;;;;;;4.50;3.23;;;2.80;99.90;;;;;;5046177;28;20193;-73
2020/12/29 01:53:00;;;;;;;3.60;2.70;;;2.70;99.90;;;;;;5052018;28;20240;-72
2020/12/29 01:55:30;;;;;;;4.63;3.33;;;2.80;99.90;;;;;;5052220;28;20201;-72
2020/12/29 01:57:59;;;;;;;6.00;4.17;;;2.80;99.90;;;;;;5033961;28;20437;-73
2020/12/29 02:00:25;;;;;;;5.07;3.23;;;2.80;99.90;;;;;;5033008;28;20504;-72
2020/12/29 02:02:51;;;;;;;4.00;3.60;;;2.80;99.90;;;;;;5032904;28;20509;-73
2020/12/29 02:05:16;;;;;;;4.23;2.80;;;2.80;99.90;;;;;;5051469;28;20253;-73
2020/12/29 02:07:42;;;;;;;2.97;2.53;;;2.80;99.90;;;;;;5052594;28;20174;-73
2020/12/29 02:10:08;;;;;;;3.37;3.07;;;2.80;99.90;;;;;;5053669;28;20198;-73
2020/12/29 02:12:35;;;;;;;3.50;3.00;;;2.80;99.90;;;;;;5036652;28;20970;-73
2020/12/29 02:15:04;;;;;;;4.07;3.50;;;2.80;99.90;;;;;;5036006;28;20199;-72
2020/12/29 02:17:30;;;;;;;4.93;3.93;;;2.80;99.90;;;;;;5040666;28;20420;-73
2020/12/29 02:19:56;;;;;;;4.30;3.77;;;2.70;99.90;;;;;;5055620;28;20768;-73
2020/12/29 02:22:23;;;;;;;3.97;3.10;;;2.70;99.90;;;;;;5055674;28;20178;-72
2020/12/29 02:25:00;;;;;;;3.47;3.17;;;2.70;99.90;;;;;;5049136;28;20171;-72
2020/12/29 02:27:29;;;;;;;4.97;3.67;;;2.80;99.90;;;;;;5042744;28;20478;-72
2020/12/29 02:29:55;;;;;;;4.40;3.50;;;2.70;99.90;;;;;;5036211;28;20851;-72
2020/12/29 02:32:22;;;;;;;3.83;3.43;;;2.70;99.90;;;;;;5046466;28;20433;-72
2020/12/29 02:34:49;;;;;;;5.13;3.70;;;2.70;99.90;;;;;;5054014;28;20456;-72
2020/12/29 02:37:15;;;;;;;4.40;3.07;;;2.70;99.90;;;;;;5054991;28;20433;-72
2020/12/29 02:39:43;;;;;;;3.87;3.47;;;2.60;99.90;;;;;;5042556;28;20498;-72
2020/12/29 02:42:10;;;;;;;3.63;2.90;;;2.60;99.90;;;;;;5037155;28;20429;-72
2020/12/29 02:44:35;;;;;;;4.20;3.40;;;2.60;99.90;;;;;;5035701;28;20426;-72
2020/12/29 02:47:03;;;;;;;3.73;3.20;;;2.70;99.90;;;;;;5051036;28;20487;-72
2020/12/29 02:49:29;;;;;;;3.37;2.80;;;2.60;99.90;;;;;;5055165;28;20174;-72
2020/12/29 02:51:58;;;;;;;3.87;2.80;;;2.60;99.90;;;;;;5055100;28;20755;-72
2020/12/29 02:54:24;;;;;;;3.20;2.83;;;2.50;99.90;;;;;;5054074;28;20480;-72
2020/12/29 02:56:51;;;;;;;5.10;3.03;;;2.50;99.90;;;;;;5049617;28;20475;-72
2020/12/29 02:59:16;;;;;;;2.97;2.77;;;2.50;99.90;;;;;;5043399;28;20182;-72
2020/12/29 03:01:42;;;;;;;4.43;3.30;;;2.50;99.90;;;;;;5035631;28;20475;-72
2020/12/29 03:04:08;;;;;;;4.00;3.23;;;2.50;99.90;;;;;;5035463;28;20179;-72
2020/12/29 03:06:33;;;;;;;3.63;3.10;;;2.50;99.90;;;;;;5038106;28;20289;-72
2020/12/29 03:08:59;;;;;;;3.73;2.87;;;2.50;99.90;;;;;;5054812;28;20200;-72
2020/12/29 03:11:29;;;;;;;4.20;3.70;;;2.40;99.90;;;;;;5054739;28;20178;-72
2020/12/29 03:13:56;;;;;;;3.27;2.97;;;2.50;99.90;;;;;;5049437;28;20271;-72
2020/12/29 03:16:22;;;;;;;3.07;2.87;;;2.50;99.90;;;;;;5035268;28;20485;-72
2020/12/29 03:18:47;;;;;;;3.20;2.80;;;2.50;99.90;;;;;;5035176;28;20420;-72
2020/12/29 03:21:13;;;;;;;4.10;3.20;;;2.50;99.90;;;;;;5042068;28;20428;-72
2020/12/29 03:23:39;;;;;;;3.33;3.03;;;2.50;99.90;;;;;;5054144;28;20552;-72
2020/12/29 03:26:04;;;;;;;2.93;2.73;;;2.60;99.90;;;;;;5054897;28;20244;-72
2020/12/29 03:28:30;;;;;;;3.30;3.00;;;2.70;99.90;;;;;;5045468;28;20509;-72
2020/12/29 03:30:55;;;;;;;3.60;3.30;;;2.80;99.90;;;;;;5035337;28;20661;-72
2020/12/29 03:33:21;;;;;;;3.47;3.17;;;2.80;99.90;;;;;;5033795;28;20751;-72
2020/12/29 03:35:46;;;;;;;5.23;3.90;;;2.90;99.90;;;;;;5043963;28;20596;-72
2020/12/29 03:38:12;;;;;;;4.10;3.70;;;2.90;99.90;;;;;;5054420;28;20181;-72
2020/12/29 03:40:37;;;;;;;4.00;3.60;;;2.90;99.90;;;;;;5052595;28;20667;-72
2020/12/29 03:43:03;;;;;;;4.90;4.07;;;3.00;99.90;;;;;;5047456;28;20283;-72
2020/12/29 03:45:28;;;;;;;7.23;4.37;;;3.10;99.90;;;;;;5052398;28;20217;-72
2020/12/29 03:47:54;;;;;;;4.17;3.80;;;3.20;99.90;;;;;;5052986;28;20523;-72
2020/12/29 03:50:20;;;;;;;4.23;3.87;;;3.20;99.90;;;;;;5045848;28;20197;-72
2020/12/29 03:52:46;;;;;;;9.60;4.30;;;3.30;99.90;;;;;;5035859;28;20177;-72
2020/12/29 03:55:12;;;;;;;5.00;3.73;;;3.30;99.90;;;;;;5034367;28;20206;-72
2020/12/29 03:57:38;;;;;;;5.43;3.60;;;3.30;99.90;;;;;;5043114;28;20498;-72
2020/12/29 04:00:06;;;;;;;4.30;3.27;;;3.20;99.90;;;;;;5053708;28;20992;-72
2020/12/29 04:02:32;;;;;;;4.87;3.70;;;3.30;99.90;;;;;;5053566;28;20534;-72
2020/12/29 04:04:58;;;;;;;3.63;3.30;;;3.40;99.90;;;;;;5045792;28;20481;-72
2020/12/29 04:07:24;;;;;;;4.43;3.43;;;3.40;99.90;;;;;;5053865;28;20473;-72
2020/12/29 04:09:49;;;;;;;4.60;3.80;;;3.40;99.90;;;;;;5053314;28;20513;-72
2020/12/29 04:12:15;;;;;;;4.17;3.87;;;3.40;99.90;;;;;;5039130;28;20180;-73
2020/12/29 04:14:40;;;;;;;4.83;3.63;;;3.50;99.90;;;;;;5034262;28;20198;-72
2020/12/29 04:17:06;;;;;;;4.23;3.83;;;3.50;99.90;;;;;;5034151;28;20220;-72
2020/12/29 04:19:31;;;;;;;4.20;3.80;;;3.60;99.90;;;;;;5049574;28;20207;-72
2020/12/29 04:21:57;;;;;;;3.43;3.23;;;3.60;99.90;;;;;;5053136;28;20184;-72
2020/12/29 04:24:22;;;;;;;6.03;3.90;;;3.70;99.90;;;;;;5053052;28;20191;-72
2020/12/29 04:26:48;;;;;;;4.30;3.60;;;3.70;99.90;;;;;;5036075;28;20191;-72
2020/12/29 04:29:13;;;;;;;5.47;3.80;;;3.70;99.90;;;;;;5034094;28;20201;-72
2020/12/29 04:31:39;;;;;;;4.50;3.97;;;3.80;99.90;;;;;;5049092;28;20217;-72
2020/12/29 04:34:05;;;;;;;5.20;3.80;;;3.80;99.90;;;;;;5033750;28;20197;-72
2020/12/29 04:36:30;;;;;;;4.00;3.60;;;3.80;99.90;;;;;;5033770;28;20227;-72
2020/12/29 04:38:56;;;;;;;4.27;3.53;;;3.70;99.90;;;;;;5035048;28;20182;-72
2020/12/29 04:41:21;;;;;;;4.23;3.20;;;3.70;99.90;;;;;;5033614;28;20179;-72
2020/12/29 04:43:47;;;;;;;4.93;3.17;;;3.70;99.90;;;;;;5035181;28;20254;-72
2020/12/29 04:46:13;;;;;;;4.33;3.93;;;3.70;99.90;;;;;;5050978;28;20342;-72
2020/12/29 04:48:40;;;;;;;5.30;4.30;;;3.80;99.90;;;;;;5033452;28;20418;-73
2020/12/29 04:51:07;;;;;;;4.50;3.93;;;3.90;99.90;;;;;;5036421;28;20423;-73
2020/12/29 04:53:35;;;;;;;4.10;3.77;;;4.00;99.90;;;;;;5041620;28;20551;-72
2020/12/29 04:56:05;;;;;;;4.30;3.90;;;4.00;99.90;;;;;;5052126;28;20445;-72
2020/12/29 04:58:32;;;;;;;4.90;3.70;;;4.10;99.90;;;;;;5033683;28;20446;-72
2020/12/29 05:01:03;;;;;;;4.87;4.37;;;4.20;99.90;;;;;;5040966;28;20809;-72
2020/12/29 05:03:44;;;;;;;5.73;3.90;;;4.20;99.90;;;;;;5052984;28;20431;-72
2020/12/29 05:06:09;;;;;;;6.93;4.03;;;4.20;99.90;;;;;;5052581;28;20434;-72
2020/12/29 05:08:35;;;;;;;5.00;4.60;;;4.30;99.90;;;;;;5038964;28;20506;-72
2020/12/29 05:11:01;;;;;;;6.30;4.40;;;4.30;99.90;;;;;;5033063;28;20181;-72
2020/12/29 05:13:26;;;;;;;6.23;3.90;;;4.40;99.90;;;;;;5033235;28;20289;-72
2020/12/29 05:15:52;;;;;;;4.57;4.03;;;4.40;99.90;;;;;;5048486;28;20282;-72
2020/12/29 05:18:17;;;;;;;4.07;3.70;;;4.40;99.90;;;;;;5052367;28;20187;-72
2020/12/29 05:20:43;;;;;;;4.50;4.10;;;4.40;99.90;;;;;;5051386;28;20205;-72
2020/12/29 05:23:09;;;;;;;4.20;3.63;;;4.40;99.90;;;;;;5034904;28;20605;-72
2020/12/29 05:25:40;;;;;;;4.10;3.70;;;4.30;99.90;;;;;;5033034;28;20518;-72
2020/12/29 05:28:06;;;;;;;4.43;4.03;;;4.30;99.90;;;;;;5033597;28;20782;-72
2020/12/29 05:30:32;;;;;;;4.20;3.80;;;4.40;99.90;;;;;;5046804;28;20421;-72
2020/12/29 05:32:57;;;;;;;4.00;3.43;;;4.40;99.90;;;;;;5031801;28;20417;-72
2020/12/29 05:35:24;;;;;;;4.37;3.97;;;4.50;99.90;;;;;;5035453;28;20631;-72
2020/12/29 05:37:52;;;;;;;6.47;4.10;;;4.50;99.90;;;;;;5052204;28;20208;-72
2020/12/29 05:40:29;;;;;;;4.43;4.00;;;4.60;99.90;;;;;;5052160;28;20422;-72
2020/12/29 05:43:00;;;;;;;3.97;3.63;;;4.50;99.90;;;;;;5047052;28;20910;-72
2020/12/29 05:45:32;;;;;;;4.70;4.30;;;4.60;99.90;;;;;;5044618;28;20431;-72
2020/12/29 05:47:59;;;;;;;4.80;3.87;;;4.50;99.90;;;;;;5052877;28;21033;-72
2020/12/29 05:50:27;;;;;;;4.13;3.73;;;4.50;99.90;;;;;;5046142;28;20496;-72
2020/12/29 05:52:56;;;;;;;4.03;3.60;;;4.50;99.90;;;;;;5035930;28;20417;-71
2020/12/29 05:55:22;;;;;;;4.87;3.90;;;4.50;99.90;;;;;;5036821;28;20565;-72
2020/12/29 05:58:23;;;;;;;6.03;4.20;;;4.50;99.90;;;;;;5050121;28;20511;-72
2020/12/29 06:00:49;;;;;;;4.90;3.90;;;4.40;99.90;;;;;;5009222;28;20429;-72
2020/12/29 06:03:15;;;;;;;4.40;4.00;;;4.40;99.90;;;;;;5014214;28;21019;-73
2020/12/29 06:05:41;;;;;;;4.40;4.00;;;4.30;99.90;;;;;;5014262;28;20827;-72
2020/12/29 06:08:07;;;;;;;4.00;3.70;;;4.30;99.90;;;;;;4997974;28;20416;-72
2020/12/29 06:10:34;;;;;;;4.73;4.33;;;4.30;99.90;;;;;;5014062;28;20216;-72
2020/12/29 06:13:03;;;;;;;6.50;4.90;;;4.20;99.90;;;;;;5013800;28;20486;-72
2020/12/29 06:15:37;;;;;;;4.63;4.23;;;4.20;99.90;;;;;;5013808;28;20944;-72
2020/12/29 06:18:04;;;;;;;5.20;4.70;;;4.10;99.90;;;;;;5014516;28;20557;-72
2020/12/29 06:20:37;;;;;;;6.30;4.83;;;4.10;99.90;;;;;;5014037;28;20431;-72
2020/12/29 06:23:05;;;;;;;4.40;4.00;;;4.00;99.90;;;;;;5000214;28;20429;-72
2020/12/29 06:25:35;;;;;;;6.10;4.70;;;4.00;99.90;;;;;;5002478;28;20626;-72
2020/12/29 06:28:05;;;;;;;4.67;4.20;;;3.90;99.90;;;;;;4994911;28;20428;-72
2020/12/29 06:30:32;;;;;;;5.10;4.60;;;3.90;99.90;;;;;;5011961;28;20950;-72
2020/12/29 06:32:59;;;;;;;5.27;4.77;;;3.90;99.90;;;;;;5000924;28;20419;-72
2020/12/29 06:35:25;;;;;;;5.23;4.73;;;3.90;99.90;;;;;;5034831;28;20797;-72
2020/12/29 06:37:58;;;;;;;5.57;5.07;;;3.80;99.90;;;;;;5055598;28;20412;-72
2020/12/29 06:40:26;;;;;;;6.20;5.10;;;3.80;99.90;;;;;;5051461;28;20192;-72
2020/12/29 06:42:53;;;;;;;5.77;5.20;;;3.70;99.90;;;;;;5044731;28;20904;-72
2020/12/29 06:45:18;;;;;;;5.50;5.00;;;3.70;99.90;;;;;;5042605;28;20483;-72
2020/12/29 06:47:45;;;;;;;4.97;4.57;;;3.60;99.90;;;;;;5036979;28;20458;-72
2020/12/29 06:50:23;;;;;;;8.30;5.90;;;3.60;99.90;;;;;;5036065;28;20266;-74
2020/12/29 06:53:04;;;;;;;5.53;5.07;;;3.60;99.90;;;;;;5052512;28;20429;-72
2020/12/29 06:55:37;;;;;;;6.13;5.53;;;3.60;99.90;;;;;;5042773;28;20443;-72
2020/12/29 06:58:07;;;;;;;5.90;5.30;;;3.60;99.90;;;;;;5051722;28;20437;-72
2020/12/29 07:00:35;;;;;;;5.83;5.23;;;3.50;99.90;;;;;;5043168;28;20417;-72
2020/12/29 07:03:01;;;;;;;6.90;6.20;;;3.50;99.90;;;;;;5053293;28;20422;-72
2020/12/29 07:05:34;;;;;;;5.33;4.80;;;3.50;99.90;;;;;;5046503;28;20444;-72
2020/12/29 07:08:01;;;;;;;8.23;5.90;;;3.50;99.90;;;;;;5042657;28;20504;-72
2020/12/29 07:10:35;;;;;;;9.50;6.30;;;3.50;99.90;;;;;;5048316;28;20413;-72
2020/12/29 07:13:17;;;;;;;7.37;6.60;;;3.50;99.90;;;;;;5054295;28;20753;-72
2020/12/29 07:15:47;;;;;;;8.50;6.97;;;3.50;99.90;;;;;;5039163;28;20561;-72
2020/12/29 07:18:22;;;;;;;9.17;6.70;;;3.50;99.90;;;;;;5051774;28;20460;-72
2020/12/29 07:20:49;;;;;;;10.43;8.13;;;3.40;99.90;;;;;;5042217;28;20420;-72
2020/12/29 07:23:18;;;;;;;8.30;7.40;;;3.40;99.90;;;;;;5036518;28;20839;-72
2020/12/29 07:25:48;;;;;;;9.27;7.60;;;3.40;99.90;;;;;;5048840;28;20452;-72
2020/12/29 07:28:14;;;;;;;8.53;7.43;;;3.40;99.90;;;;;;5052705;28;20488;-73
2020/12/29 07:30:40;;;;;;;9.50;7.50;;;3.40;99.90;;;;;;5047046;28;20426;-72
2020/12/29 07:33:07;;;;;;;10.77;8.10;;;3.40;99.90;;;;;;5052591;28;20436;-72
2020/12/29 07:35:34;;;;;;;8.90;7.40;;;3.40;99.90;;;;;;5050491;28;20215;-72
2020/12/29 07:38:24;;;;;;;8.77;7.60;;;3.40;99.90;;;;;;5035103;28;20421;-72
2020/12/29 07:40:49;;;;;;;10.20;8.13;;;3.40;99.90;;;;;;5049206;28;20425;-72
2020/12/29 07:43:15;;;;;;;11.57;9.10;;;3.40;99.90;;;;;;5045794;28;20498;-72
2020/12/29 07:45:41;;;;;;;10.53;8.30;;;3.40;99.90;;;;;;5053806;28;20536;-72
2020/12/29 07:48:07;;;;;;;10.73;9.20;;;3.50;99.90;;;;;;5052716;28;20228;-72
2020/12/29 07:50:35;;;;;;;11.37;9.97;;;3.50;99.90;;;;;;5045992;28;20186;-73
2020/12/29 07:53:06;;;;;;;11.57;8.50;;;3.50;99.90;;;;;;5055580;28;20451;-73
2020/12/29 07:55:33;;;;;;;9.80;8.47;;;3.60;99.90;;;;;;5052900;28;20471;-73
2020/12/29 07:58:05;;;;;;;17.77;11.60;;;3.60;99.90;;;;;;5050049;28;20903;-73
2020/12/29 08:00:36;;;;;;;10.77;9.00;;;3.60;99.90;;;;;;5045392;28;20512;-73
2020/12/29 08:03:03;;;;;;;9.30;8.33;;;3.60;99.90;;;;;;5047195;28;20409;-73
2020/12/29 08:05:31;;;;;;;13.60;9.30;;;3.60;99.90;;;;;;5036571;28;20528;-73
2020/12/29 08:08:00;;;;;;;13.07;10.47;;;3.60;99.90;;;;;;5054061;28;20426;-73
2020/12/29 08:10:28;;;;;;;9.83;8.87;;;3.50;99.90;;;;;;5055715;28;20860;-73
2020/12/29 08:12:56;;;;;;;14.53;9.70;;;3.50;99.90;;;;;;5049021;28;20412;-73
2020/12/29 08:15:28;;;;;;;13.40;9.70;;;3.50;99.90;;;;;;5043332;28;20559;-73
2020/12/29 08:18:15;;;;;;;10.20;8.70;;;3.50;99.90;;;;;;5051890;28;20425;-73
2020/12/29 08:21:01;;;;;;;10.67;8.77;;;3.60;99.90;;;;;;5037557;28;20528;-73
2020/12/29 08:23:28;;;;;;;11.40;9.00;;;3.60;99.90;;;;;;5052127;28;20443;-72
2020/12/29 08:25:58;;;;;;;8.70;7.60;;;3.60;99.90;;;;;;5041942;28;20442;-73
2020/12/29 08:28:25;;;;;;;10.50;8.87;;;3.70;99.90;;;;;;5040662;28;20464;-73
2020/12/29 08:30:52;;;;;;;12.87;8.90;;;3.70;99.90;;;;;;5053007;28;20861;-73
2020/12/29 08:33:22;;;;;;;10.87;8.27;;;3.70;99.90;;;;;;5039252;28;20436;-73
2020/12/29 08:35:54;;;;;;;11.27;7.70;;;3.80;99.90;;;;;;5041345;28;20425;-73
2020/12/29 08:38:40;;;;;;;11.10;8.63;;;3.80;99.90;;;;;;5053162;28;20436;-73
2020/12/29 08:41:09;;;;;;;9.97;7.50;;;3.90;99.90;;;;;;5036700;28;20407;-73
2020/12/29 08:43:43;;;;;;;9.53;7.70;;;4.00;99.90;;;;;;5052888;28;20946;-73
2020/12/29 08:46:11;;;;;;;8.80;7.30;;;4.00;99.90;;;;;;5049502;28;20462;-73
2020/12/29 08:48:39;;;;;;;10.13;8.63;;;4.10;99.90;;;;;;5033142;28;20515;-73
2020/12/29 08:51:25;;;;;;;9.27;7.40;;;4.00;99.90;;;;;;5043387;28;20412;-73
2020/12/29 08:53:51;;;;;;;9.37;7.33;;;4.00;99.90;;;;;;5052297;28;20457;-73
2020/12/29 08:56:26;;;;;;;8.80;7.20;;;4.10;99.90;;;;;;5048841;28;20438;-73
2020/12/29 08:58:53;;;;;;;8.50;7.00;;;4.10;99.90;;;;;;5040689;28;20864;-73
2020/12/29 09:01:30;;;;;;;8.00;7.20;;;4.20;99.90;;;;;;5041951;28;20511;-73
2020/12/29 09:03:55;;;;;;;8.63;6.70;;;4.20;99.90;;;;;;5032008;28;20422;-73
2020/12/29 09:06:22;;;;;;;9.77;8.40;;;4.20;99.90;;;;;;5035681;28;20499;-73
2020/12/29 09:08:47;;;;;;;11.60;7.63;;;4.20;99.90;;;;;;5044571;28;20646;-73
2020/12/29 09:11:14;;;;;;;7.80;7.00;;;4.30;99.90;;;;;;5053243;28;20548;-73
2020/12/29 09:14:05;;;;;;;11.20;8.40;;;4.30;99.90;;;;;;5040084;28;20221;-73
2020/12/29 09:16:31;;;;;;;8.43;7.33;;;4.40;99.90;;;;;;5052417;28;20536;-73
2020/12/29 09:18:57;;;;;;;11.13;7.30;;;4.30;99.90;;;;;;5038125;28;20420;-73
2020/12/29 09:21:24;;;;;;;10.90;7.00;;;4.40;99.90;;;;;;5048950;28;20421;-73
2020/12/29 09:24:03;;;;;;;7.93;7.13;;;4.40;99.90;;;;;;5046270;28;20775;-73
2020/12/29 09:26:29;;;;;;;10.40;6.80;;;4.40;99.90;;;;;;5041249;28;20538;-73
2020/12/29 09:28:55;;;;;;;8.23;7.33;;;4.30;99.90;;;;;;5037565;28;20422;-73
2020/12/29 09:31:28;;;;;;;9.13;7.03;;;4.40;99.90;;;;;;5035665;28;20424;-73
2020/12/29 09:33:54;;;;;;;9.10;7.30;;;4.40;99.90;;;;;;5044493;28;20808;-73
2020/12/29 09:36:26;;;;;;;9.13;7.00;;;4.40;99.90;;;;;;5043617;28;20433;-73
2020/12/29 09:38:53;;;;;;;8.00;6.80;;;4.50;99.90;;;;;;5033057;28;20470;-73
2020/12/29 09:41:19;;;;;;;8.93;7.53;;;4.60;99.90;;;;;;5040037;28;20453;-73
2020/12/29 09:43:46;;;;;;;9.20;6.73;;;4.70;99.90;;;;;;5041324;28;20505;-73
2020/12/29 09:46:11;;;;;;;8.33;7.30;;;4.70;99.90;;;;;;5045064;28;20939;-73
2020/12/29 09:48:37;;;;;;;10.37;7.97;;;4.70;99.90;;;;;;5051279;28;20427;-73
2020/12/29 09:51:03;;;;;;;11.17;7.83;;;4.70;99.90;;;;;;5047875;28;20209;-73
2020/12/29 09:53:29;;;;;;;9.17;7.57;;;4.80;99.90;;;;;;5031501;28;20197;-73
2020/12/29 09:55:55;;;;;;;11.90;8.40;;;4.80;99.90;;;;;;5035013;28;20466;-73
2020/12/29 09:58:21;;;;;;;8.53;7.60;;;4.60;99.90;;;;;;5038369;28;20201;-73
2020/12/29 10:00:47;;;;;;;10.80;7.97;;;4.70;99.90;;;;;;5049205;28;20433;-73
2020/12/29 10:03:13;;;;;;;9.10;7.17;;;4.60;99.90;;;;;;5035821;28;20196;-73
2020/12/29 10:05:39;;;;;;;9.43;7.13;;;4.60;99.90;;;;;;5043734;28;20551;-75
2020/12/29 10:08:05;;;;;;;8.30;7.00;;;4.70;99.90;;;;;;5034887;28;20530;-73
2020/12/29 10:10:30;;;;;;;12.57;8.30;;;4.60;99.90;;;;;;5046339;28;20186;-72
2020/12/29 10:12:56;;;;;;;9.33;8.50;;;4.70;99.90;;;;;;5046733;28;20185;-72
2020/12/29 10:15:22;;;;;;;12.00;8.00;;;4.80;99.90;;;;;;5035640;28;21006;-72
2020/12/29 10:17:47;;;;;;;10.30;9.07;;;4.80;99.90;;;;;;5044658;28;20178;-72
2020/12/29 10:20:14;;;;;;;11.47;8.87;;;4.80;99.90;;;;;;5042444;28;20205;-73
2020/12/29 10:22:40;;;;;;;11.00;8.63;;;4.80;99.90;;;;;;5046238;28;20522;-72
2020/12/29 10:25:10;;;;;;;12.20;8.83;;;4.80;99.90;;;;;;5039580;28;20434;-72
2020/12/29 10:27:35;;;;;;;11.33;8.77;;;4.90;99.90;;;;;;5039231;28;20175;-72
2020/12/29 10:30:01;;;;;;;13.53;8.30;;;4.90;99.90;;;;;;5046202;28;20444;-72
2020/12/29 10:32:26;;;;;;;10.13;8.93;;;4.90;99.90;;;;;;5050083;28;20234;-72
2020/12/29 10:34:52;;;;;;;14.87;10.30;;;4.80;99.90;;;;;;5040884;28;20218;-72
2020/12/29 10:37:17;;;;;;;15.63;9.00;;;4.80;99.90;;;;;;5044867;28;20719;-72
2020/12/29 10:39:43;;;;;;;11.40;9.60;;;4.90;99.90;;;;;;5055622;28;20663;-72
2020/12/29 10:42:09;;;;;;;13.40;10.10;;;4.90;99.90;;;;;;5055291;28;20685;-73
2020/12/29 10:44:37;;;;;;;14.90;9.83;;;4.90;99.90;;;;;;5034646;28;20214;-73
2020/12/29 10:47:03;;;;;;;12.37;10.33;;;4.90;99.90;;;;;;5049921;28;20553;-74
2020/12/29 10:49:29;;;;;;;15.97;10.10;;;4.90;99.90;;;;;;5051723;28;20830;-73
2020/12/29 10:51:55;;;;;;;24.93;10.17;;;4.90;99.90;;;;;;5047222;28;20430;-74
2020/12/29 10:54:20;;;;;;;15.63;10.93;;;4.90;99.90;;;;;;5038488;28;20217;-75
2020/12/29 10:56:46;;;;;;;13.43;11.03;;;4.90;99.90;;;;;;5051869;28;20201;-74
2020/12/29 10:59:12;;;;;;;14.93;12.43;;;4.90;99.90;;;;;;5036901;28;20641;-75
2020/12/29 11:01:38;;;;;;;14.43;11.40;;;4.90;99.90;;;;;;5050826;28;20233;-75
2020/12/29 11:04:04;;;;;;;15.50;11.20;;;5.00;99.90;;;;;;5052609;28;21231;-74
2020/12/29 11:06:29;;;;;;;15.60;10.73;;;5.00;99.90;;;;;;5041653;28;20207;-73
2020/12/29 11:08:55;;;;;;;23.20;13.40;;;4.90;99.90;;;;;;5038905;28;20588;-72
2020/12/29 11:11:20;;;;;;;16.47;12.43;;;5.10;99.90;;;;;;5054408;28;20313;-72
2020/12/29 11:13:47;;;;;;;15.10;12.63;;;5.10;99.90;;;;;;5037569;28;20558;-74
2020/12/29 11:16:14;;;;;;;16.67;12.63;;;5.20;99.90;;;;;;5049434;28;20456;-72
2020/12/29 11:18:39;;;;;;;18.20;11.97;;;5.20;99.90;;;;;;5035400;28;20422;-72
2020/12/29 11:21:05;;;;;;;17.07;14.50;;;5.30;99.90;;;;;;5050750;28;20448;-72
2020/12/29 11:23:30;;;;;;;15.50;13.90;;;5.40;99.90;;;;;;5040489;28;20569;-73
2020/12/29 11:25:59;;;;;;;17.33;14.57;;;5.30;99.90;;;;;;5050578;28;20707;-71
2020/12/29 11:28:25;;;;;;;16.30;12.90;;;5.30;99.90;;;;;;5039697;28;20179;-70
2020/12/29 11:30:51;;;;;;;17.83;12.83;;;5.50;99.90;;;;;;5044879;28;20878;-70
2020/12/29 11:33:16;;;;;;;17.50;13.37;;;5.40;99.90;;;;;;5040900;28;20961;-71
2020/12/29 11:35:47;;;;;;;21.30;14.37;;;5.30;99.90;;;;;;5050046;28;20449;-71
2020/12/29 11:38:16;;;;;;;16.50;13.27;;;5.30;99.90;;;;;;5058759;28;20178;-72
2020/12/29 11:40:42;;;;;;;16.43;12.90;;;5.20;99.90;;;;;;5063105;28;20426;-72
2020/12/29 11:43:08;;;;;;;17.07;13.40;;;5.30;99.90;;;;;;5044662;28;20433;-72
2020/12/29 11:45:34;;;;;;;17.23;13.33;;;5.30;99.90;;;;;;5048876;28;20452;-71
2020/12/29 11:48:00;;;;;;;17.60;14.53;;;5.30;99.90;;;;;;5064358;28;20436;-71
2020/12/29 11:50:25;;;;;;;22.53;14.53;;;5.30;99.90;;;;;;5048973;28;20178;-71
2020/12/29 11:52:51;;;;;;;22.67;14.00;;;5.20;99.90;;;;;;5039303;28;20175;-71
2020/12/29 11:55:16;;;;;;;18.80;13.97;;;5.20;99.90;;;;;;5043034;28;20227;-72
2020/12/29 11:57:42;;;;;;;17.97;14.07;;;5.10;99.90;;;;;;5040706;28;20180;-73
2020/12/29 12:00:08;;;;;;;21.20;15.00;;;5.10;99.90;;;;;;5050436;28;20177;-72
2020/12/29 12:02:33;;;;;;;17.97;14.77;;;5.00;99.90;;;;;;5037832;28;20184;-72
2020/12/29 12:04:59;;;;;;;20.20;15.53;;;4.90;99.90;;;;;;5047576;28;20174;-73
2020/12/29 12:07:25;;;;;;;22.33;15.33;;;5.00;99.90;;;;;;5051604;28;20427;-72
2020/12/29 12:09:50;;;;;;;21.63;16.20;;;5.00;99.90;;;;;;5035144;28;20645;-72
2020/12/29 12:12:16;;;;;;;18.87;14.77;;;4.90;99.90;;;;;;5049451;28;20265;-71
2020/12/29 12:14:41;;;;;;;24.10;15.33;;;4.90;99.90;;;;;;5037423;28;20198;-73
2020/12/29 12:17:07;;;;;;;20.03;13.43;;;4.90;99.90;;;;;;5054265;28;20200;-72
2020/12/29 12:19:33;;;;;;;22.80;14.17;;;5.00;99.90;;;;;;5052447;28;20182;-73
2020/12/29 12:21:58;;;;;;;21.30;15.17;;;5.20;99.90;;;;;;5046734;28;20272;-74
2020/12/29 12:24:24;;;;;;;18.97;14.93;;;5.30;99.90;;;;;;5048632;28;20186;-73
2020/12/29 12:26:51;;;;;;;17.53;14.70;;;5.30;99.90;;;;;;5048553;28;20203;-73
2020/12/29 12:29:17;;;;;;;17.77;13.17;;;5.20;99.90;;;;;;5034249;28;20178;-73
2020/12/29 12:31:43;;;;;;;19.00;13.20;;;5.10;99.90;;;;;;5052404;28;20884;-73
2020/12/29 12:34:09;;;;;;;15.40;12.97;;;5.00;99.90;;;;;;5047515;28;20241;-73
2020/12/29 12:36:35;;;;;;;16.03;12.67;;;5.00;99.90;;;;;;5034541;28;20520;-72
2020/12/29 12:39:00;;;;;;;14.37;10.90;;;4.90;99.90;;;;;;5041304;28;20441;-74
2020/12/29 12:41:26;;;;;;;15.47;11.40;;;5.00;99.90;;;;;;5032286;28;20182;-73
2020/12/29 12:43:51;;;;;;;15.10;12.00;;;5.00;99.90;;;;;;5048878;28;20211;-71
2020/12/29 12:46:17;;;;;;;15.47;10.97;;;5.00;99.90;;;;;;5033578;28;20209;-70
2020/12/29 12:48:42;;;;;;;14.80;11.03;;;4.90;99.90;;;;;;5041430;28;20197;-70
2020/12/29 12:51:08;;;;;;;18.30;12.37;;;4.90;99.90;;;;;;5033769;28;20175;-70
2020/12/29 12:53:34;;;;;;;16.53;11.80;;;5.00;99.90;;;;;;5048416;28;20201;-70